Time;durP1;ratioP1;P1;durP2;ratioP2;P2;SDS_P1;SDS_P2;PMS_P1;PMS_P2;Temp;Humidity;BMP_temperature;BMP_pressure;BME280_temperature;BME280_humidity;BME280_pressure;Samples;Min_cycle;Max_cycle;Signal;HPM_P1;HPM_P2
2021/04/23 00:00:53;;;;;;;6.10;5.00;;;;;;;9.14;66.61;97147.42;1695388;83;21143;-78
2021/04/23 00:03:40;;;;;;;7.62;5.08;;;;;;;9.19;66.66;97142.16;1720712;83;21263;-80
2021/04/23 00:06:24;;;;;;;6.55;4.95;;;;;;;9.28;66.58;97146.41;1720926;83;21688;-80
2021/04/23 00:09:04;;;;;;;7.90;5.67;;;;;;;9.32;66.84;97150.01;1686719;84;21155;-80
2021/04/23 00:11:40;;;;;;;7.05;4.80;;;;;;;9.44;66.90;97146.08;1692506;85;21497;-76
2021/04/23 00:14:10;;;;;;;7.12;4.45;;;;;;;9.52;66.72;97137.98;1692275;85;21145;-78
2021/04/23 00:16:38;;;;;;;5.17;4.40;;;;;;;9.61;66.83;97136.43;1693266;83;21286;-74
2021/04/23 00:19:10;;;;;;;6.85;4.72;;;;;;;9.68;66.60;97135.03;1692243;84;21315;-76
2021/04/23 00:21:39;;;;;;;5.42;4.67;;;;;;;9.69;66.36;97131.91;1698353;83;21573;-78
2021/04/23 00:24:09;;;;;;;9.05;4.97;;;;;;;9.72;66.09;97133.47;1716716;83;21555;-75
2021/04/23 00:26:36;;;;;;;7.45;5.47;;;;;;;9.68;65.86;97135.03;1720366;83;21251;-78
2021/04/23 00:29:04;;;;;;;7.10;5.95;;;;;;;9.61;65.99;97130.34;1721244;83;21132;-76
2021/04/23 00:31:33;;;;;;;7.35;5.97;;;;;;;9.51;65.90;97128.41;1721312;83;21144;-77
2021/04/23 00:34:01;;;;;;;9.23;6.00;;;;;;;9.46;66.10;97131.02;1721392;83;21247;-78
2021/04/23 00:36:29;;;;;;;7.65;6.12;;;;;;;9.37;66.24;97129.94;1721526;83;21282;-78
2021/04/23 00:39:00;;;;;;;12.63;7.72;;;;;;;9.22;66.64;97137.17;1705585;83;21254;-77
2021/04/23 00:41:32;;;;;;;10.43;7.72;;;;;;;9.14;66.83;97135.10;1697948;85;21148;-79
2021/04/23 00:44:00;;;;;;;12.53;7.90;;;;;;;9.02;66.88;97133.36;1698052;85;21560;-81
2021/04/23 00:46:31;;;;;;;11.45;8.80;;;;;;;8.94;66.91;97123.43;1698096;85;21350;-77
2021/04/23 00:49:01;;;;;;;10.98;8.20;;;;;;;8.94;66.78;97129.14;1697628;85;21159;-77
2021/04/23 00:51:35;;;;;;;12.60;8.80;;;;;;;8.87;67.31;97137.49;1698129;85;21294;-79
2021/04/23 00:54:06;;;;;;;12.47;9.75;;;;;;;8.82;67.14;97140.91;1698054;85;21799;-77
2021/04/23 00:56:37;;;;;;;13.32;9.45;;;;;;;8.80;67.24;97143.30;1698180;83;21171;-77
2021/04/23 00:59:08;;;;;;;11.95;8.18;;;;;;;8.78;67.34;97138.62;1698041;85;21282;-77
2021/04/23 01:01:44;;;;;;;9.28;7.03;;;;;;;8.76;67.31;97137.42;1698046;85;21168;-77
2021/04/23 01:04:15;;;;;;;13.38;7.08;;;;;;;8.70;67.11;97134.76;1696758;85;21310;-77
2021/04/23 01:06:42;;;;;;;8.05;6.75;;;;;;;8.67;67.25;97127.58;1701041;83;21722;-74
2021/04/23 01:09:17;;;;;;;9.80;7.10;;;;;;;8.61;67.41;97133.28;1696966;85;21278;-76
2021/04/23 01:11:47;;;;;;;10.32;7.45;;;;;;;8.61;67.57;97127.54;1698062;83;21160;-78
2021/04/23 01:14:16;;;;;;;9.90;6.50;;;;;;;8.70;67.77;97133.94;1699624;83;21088;-77
2021/04/23 01:16:44;;;;;;;10.70;6.47;;;;;;;8.80;67.92;97123.12;1707585;83;21178;-77
2021/04/23 01:19:16;;;;;;;14.80;6.22;;;;;;;8.89;67.95;97120.28;1697721;85;21314;-76
2021/04/23 01:21:45;;;;;;;12.30;6.20;;;;;;;8.98;68.12;97124.05;1697469;85;21160;-77
2021/04/23 01:24:13;;;;;;;9.68;5.87;;;;;;;9.04;68.05;97127.52;1697715;85;21290;-77
2021/04/23 01:26:49;;;;;;;8.13;5.75;;;;;;;9.17;68.05;97128.77;1697217;85;21688;-76
2021/04/23 01:29:18;;;;;;;6.75;5.75;;;;;;;9.28;68.14;97134.57;1697068;85;21581;-77
2021/04/23 01:31:51;;;;;;;11.65;6.25;;;;;;;9.37;67.98;97120.23;1697156;85;21274;-77
2021/04/23 01:34:30;;;;;;;10.48;6.50;;;;;;;9.51;67.98;97115.25;1698069;83;21143;-77
2021/04/23 01:37:01;;;;;;;7.78;5.70;;;;;;;9.54;67.62;97114.17;1697347;85;21130;-78
2021/04/23 01:39:33;;;;;;;10.68;6.75;;;;;;;9.53;67.57;97115.13;1697458;85;21270;-78
2021/04/23 01:42:02;;;;;;;8.10;6.08;;;;;;;9.55;67.64;97121.61;1697123;85;21278;-77
2021/04/23 01:44:33;;;;;;;7.83;6.08;;;;;;;9.63;67.58;97123.17;1697405;85;21159;-77
2021/04/23 01:47:02;;;;;;;10.63;5.80;;;;;;;9.69;67.31;97127.50;1697556;84;21306;-75
2021/04/23 01:49:31;;;;;;;9.88;5.80;;;;;;;9.71;67.17;97130.47;1697163;85;21302;-78
2021/04/23 01:52:04;;;;;;;7.75;5.20;;;;;;;9.69;67.01;97127.50;1696982;85;21259;-78
2021/04/23 01:54:34;;;;;;;9.20;6.00;;;;;;;9.68;66.83;97132.86;1695799;83;21278;-77
2021/04/23 01:57:04;;;;;;;6.47;5.08;;;;;;;9.65;66.72;97137.06;1696867;85;21179;-76
2021/04/23 01:59:36;;;;;;;7.72;4.83;;;;;;;9.62;66.54;97133.34;1704479;83;21136;-79
2021/04/23 02:02:05;;;;;;;7.15;5.92;;;;;;;9.53;66.41;97133.08;1726446;83;21263;-77
2021/04/23 02:04:33;;;;;;;6.60;5.35;;;;;;;9.45;66.47;97133.28;1700271;83;21386;-78
2021/04/23 02:07:05;;;;;;;8.05;6.62;;;;;;;9.36;66.52;97134.34;1727209;83;21259;-77
2021/04/23 02:09:33;;;;;;;8.88;7.30;;;;;;;9.28;66.59;97144.59;1727143;83;21341;-78
2021/04/23 02:12:04;;;;;;;9.73;6.67;;;;;;;9.20;66.76;97143.02;1726325;83;21127;-77
2021/04/23 02:14:31;;;;;;;9.50;8.03;;;;;;;9.13;66.69;97149.69;1699873;83;21140;-78
2021/04/23 02:16:59;;;;;;;11.08;8.95;;;;;;;9.05;66.81;97151.55;1698142;85;21168;-79
2021/04/23 02:19:26;;;;;;;14.75;10.13;;;;;;;8.97;66.81;97153.91;1700400;83;21731;-78
2021/04/23 02:21:54;;;;;;;15.38;10.75;;;;;;;8.88;67.10;97151.46;1726098;83;21143;-76
2021/04/23 02:24:21;;;;;;;17.02;12.43;;;;;;;8.81;67.38;97162.06;1725905;83;21155;-77
2021/04/23 02:26:49;;;;;;;21.12;13.58;;;;;;;8.74;67.40;97164.28;1725833;83;21101;-76
2021/04/23 02:29:18;;;;;;;19.90;14.53;;;;;;;8.69;67.54;97158.53;1725900;83;21243;-79
2021/04/23 02:31:50;;;;;;;23.85;13.58;;;;;;;8.65;67.65;97158.37;1725962;83;21148;-77
2021/04/23 02:34:22;;;;;;;24.47;15.90;;;;;;;8.62;67.69;97158.13;1725888;83;21300;-80
2021/04/23 02:36:51;;;;;;;20.30;11.80;;;;;;;8.61;67.64;97152.98;1725737;83;21159;-76
2021/04/23 02:39:19;;;;;;;17.65;10.82;;;;;;;8.57;67.61;97151.06;1708967;83;21195;-78
2021/04/23 02:41:52;;;;;;;16.35;10.88;;;;;;;8.55;67.79;97156.89;1697100;85;21156;-76
2021/04/23 02:44:25;;;;;;;15.50;10.15;;;;;;;8.56;68.23;97157.26;1696617;84;21330;-75
2021/04/23 02:46:54;;;;;;;11.63;8.33;;;;;;;8.59;68.44;97151.77;1696804;84;21744;-75
2021/04/23 02:49:22;;;;;;;14.87;8.68;;;;;;;8.65;68.65;97146.09;1722192;83;21467;-76
2021/04/23 02:51:51;;;;;;;10.08;6.67;;;;;;;8.72;68.81;97142.06;1725107;83;21313;-78
2021/04/23 02:54:20;;;;;;;11.73;6.37;;;;;;;8.82;68.95;97137.46;1725078;83;21266;-77
2021/04/23 02:56:49;;;;;;;8.43;4.72;;;;;;;8.90;68.79;97138.59;1725783;83;21168;-80
2021/04/23 02:59:17;;;;;;;9.50;5.50;;;;;;;8.97;68.76;97132.88;1724879;83;21301;-78
2021/04/23 03:01:49;;;;;;;9.03;5.83;;;;;;;9.01;68.68;97132.54;1725611;83;21259;-77
2021/04/23 03:04:17;;;;;;;10.30;5.42;;;;;;;9.11;68.68;97139.75;1725798;83;21291;-78
2021/04/23 03:06:45;;;;;;;10.90;5.08;;;;;;;9.15;68.46;97135.92;1726369;83;21134;-77
2021/04/23 03:09:13;;;;;;;11.48;4.70;;;;;;;9.20;68.52;97139.89;1726187;83;21773;-77
2021/04/23 03:11:43;;;;;;;6.60;4.62;;;;;;;9.29;68.42;97143.65;1722991;82;21147;-77
2021/04/23 03:14:11;;;;;;;6.85;4.95;;;;;;;9.38;68.41;97146.91;1726269;83;21144;-77
2021/04/23 03:16:42;;;;;;;9.68;6.05;;;;;;;9.42;68.09;97150.15;1725910;83;21315;-77
2021/04/23 03:19:14;;;;;;;8.73;7.50;;;;;;;9.46;68.09;97152.06;1702770;83;21156;-77
2021/04/23 03:21:44;;;;;;;13.75;7.55;;;;;;;9.50;67.86;97145.14;1705873;83;21186;-78
2021/04/23 03:24:13;;;;;;;8.98;7.15;;;;;;;9.49;67.69;97146.59;1714936;83;21298;-78
2021/04/23 03:26:42;;;;;;;9.48;7.80;;;;;;;9.49;67.51;97145.27;1706901;83;21147;-77
2021/04/23 03:29:11;;;;;;;10.48;6.80;;;;;;;9.46;67.34;97152.06;1702193;83;21147;-78
2021/04/23 03:31:39;;;;;;;7.90;5.45;;;;;;;9.43;67.35;97154.92;1698539;83;21274;-77
2021/04/23 03:34:08;;;;;;;8.93;5.70;;;;;;;9.36;67.26;97157.19;1704245;83;21124;-76
2021/04/23 03:36:35;;;;;;;9.35;6.42;;;;;;;9.28;67.17;97152.98;1722432;83;21136;-77
2021/04/23 03:39:09;;;;;;;7.20;5.33;;;;;;;9.20;67.34;97150.91;1718137;83;21225;-77
2021/04/23 03:41:41;;;;;;;10.08;6.17;;;;;;;9.14;67.36;97147.42;1724689;83;21306;-77
2021/04/23 03:44:10;;;;;;;9.30;7.10;;;;;;;9.04;67.10;97144.62;1716400;83;21258;-77
2021/04/23 03:46:40;;;;;;;12.28;7.40;;;;;;;8.97;67.45;97146.84;1696547;85;21610;-77
2021/04/23 03:49:08;;;;;;;15.38;10.55;;;;;;;8.92;67.64;97152.93;1704701;83;21128;-77
2021/04/23 03:51:35;;;;;;;11.65;8.15;;;;;;;8.86;67.70;97152.89;1724315;83;21753;-77
2021/04/23 03:54:03;;;;;;;10.72;7.90;;;;;;;8.81;67.81;97157.66;1714088;83;21289;-76
2021/04/23 03:56:31;;;;;;;11.05;7.62;;;;;;;8.76;67.90;97154.50;1695947;85;21167;-77
2021/04/23 03:58:59;;;;;;;8.93;7.92;;;;;;;8.71;68.00;97162.72;1707842;83;21290;-76
2021/04/23 04:01:30;;;;;;;11.85;8.05;;;;;;;8.67;68.10;97163.91;1707349;83;21608;-76
2021/04/23 04:03:58;;;;;;;10.45;7.70;;;;;;;8.61;68.13;97160.38;1696653;83;21144;-77
2021/04/23 04:06:25;;;;;;;11.80;8.63;;;;;;;8.57;68.19;97164.20;1713250;83;21092;-76
2021/04/23 04:08:53;;;;;;;11.88;8.50;;;;;;;8.54;68.29;97166.54;1724177;83;21120;-76
2021/04/23 04:11:22;;;;;;;11.30;7.65;;;;;;;8.52;68.40;97167.15;1724679;83;21153;-77
2021/04/23 04:13:50;;;;;;;14.13;8.10;;;;;;;8.52;68.34;97170.23;1723559;83;21262;-77
2021/04/23 04:16:18;;;;;;;10.05;7.87;;;;;;;8.51;68.63;97177.29;1699392;83;21298;-77
2021/04/23 04:18:46;;;;;;;10.45;8.20;;;;;;;8.51;68.73;97179.92;1696568;83;21140;-77
2021/04/23 04:21:14;;;;;;;14.07;7.42;;;;;;;8.53;68.77;97173.23;1699791;83;21168;-77
2021/04/23 04:23:43;;;;;;;9.90;7.17;;;;;;;8.58;68.93;97177.21;1698985;83;21301;-77
2021/04/23 04:26:10;;;;;;;13.75;7.05;;;;;;;8.63;68.96;97182.14;1696746;83;21147;-77
2021/04/23 04:28:38;;;;;;;9.53;7.80;;;;;;;8.69;69.00;97186.95;1696114;85;21613;-77
2021/04/23 04:31:05;;;;;;;13.15;7.47;;;;;;;8.77;69.14;97192.16;1696775;83;21309;-77
2021/04/23 04:33:34;;;;;;;11.90;7.85;;;;;;;8.86;69.14;97190.19;1697152;83;21163;-77
2021/04/23 04:36:02;;;;;;;19.70;10.58;;;;;;;8.97;69.10;97190.72;1724541;83;21148;-77
2021/04/23 04:38:30;;;;;;;15.03;9.73;;;;;;;9.08;69.05;97191.24;1722205;83;21191;-77
2021/04/23 04:40:57;;;;;;;14.35;9.18;;;;;;;9.20;69.03;97188.55;1704095;83;21112;-77
2021/04/23 04:43:25;;;;;;;22.02;8.60;;;;;;;9.31;68.98;97194.81;1695751;83;21274;-77
2021/04/23 04:45:52;;;;;;;16.05;7.78;;;;;;;9.40;68.72;97207.30;1722041;83;21128;-77
2021/04/23 04:48:20;;;;;;;17.42;7.70;;;;;;;9.48;68.71;97204.11;1711091;83;21144;-76
2021/04/23 04:50:52;;;;;;;18.32;8.45;;;;;;;9.62;68.59;97205.71;1712177;83;21258;-77
2021/04/23 04:53:20;;;;;;;21.25;8.55;;;;;;;9.70;68.42;97205.97;1725221;83;21581;-76
2021/04/23 04:55:52;;;;;;;17.37;8.68;;;;;;;9.74;68.04;97210.52;1725508;83;21120;-77
2021/04/23 04:58:25;;;;;;;13.10;8.43;;;;;;;9.73;67.80;97211.48;1725721;83;21159;-78
2021/04/23 05:00:53;;;;;;;11.12;7.70;;;;;;;9.74;67.67;97215.33;1699930;83;21155;-76
2021/04/23 05:03:21;;;;;;;15.60;8.68;;;;;;;9.77;67.55;97215.08;1699274;83;21297;-78
2021/04/23 05:05:49;;;;;;;18.10;8.63;;;;;;;9.83;67.37;97209.84;1697557;85;21176;-79
2021/04/23 05:08:17;;;;;;;12.53;8.13;;;;;;;9.88;67.19;97217.38;1697642;83;21302;-78
2021/04/23 05:10:44;;;;;;;16.12;8.35;;;;;;;9.93;67.17;97210.82;1722077;83;21154;-78
2021/04/23 05:13:12;;;;;;;19.17;8.75;;;;;;;10.02;66.99;97214.56;1707309;83;21715;-78
2021/04/23 05:15:41;;;;;;;18.92;8.38;;;;;;;10.13;66.78;97213.73;1698366;83;21336;-83
2021/04/23 05:18:08;;;;;;;13.45;7.35;;;;;;;10.23;66.61;97217.34;1698422;83;21280;-80
2021/04/23 05:20:37;;;;;;;13.95;7.42;;;;;;;10.31;66.29;97222.00;1697084;83;21167;-78
2021/04/23 05:23:07;;;;;;;15.38;8.38;;;;;;;10.37;66.07;97223.32;1701349;83;21285;-78
2021/04/23 05:25:39;;;;;;;13.83;8.28;;;;;;;10.36;65.93;97226.91;1725681;83;21616;-78
2021/04/23 05:28:06;;;;;;;14.00;8.33;;;;;;;10.42;65.87;97237.03;1718187;83;21685;-78
2021/04/23 05:30:36;;;;;;;12.60;8.40;;;;;;;10.49;65.75;97235.59;1688347;84;21147;-77
2021/04/23 05:33:08;;;;;;;10.80;7.90;;;;;;;10.53;65.62;97236.19;1713106;83;21135;-77
2021/04/23 05:35:39;;;;;;;14.35;8.00;;;;;;;10.58;65.49;97235.36;1724399;83;21148;-77
2021/04/23 05:38:07;;;;;;;12.82;8.93;;;;;;;10.60;65.37;97243.50;1701135;83;21144;-77
2021/04/23 05:40:43;;;;;;;13.83;9.65;;;;;;;10.61;65.35;97239.91;1710698;83;21561;-75
2021/04/23 05:43:13;;;;;;;13.05;8.75;;;;;;;10.68;65.49;97244.20;1705517;84;21113;-80
2021/04/23 05:45:44;;;;;;;11.50;9.35;;;;;;;10.74;65.40;97245.05;1701959;83;21151;-74
2021/04/23 05:48:17;;;;;;;14.28;8.88;;;;;;;10.80;65.29;97245.05;1682584;84;21175;-77
2021/04/23 05:50:47;;;;;;;14.85;11.28;;;;;;;10.86;65.14;97247.66;1691200;84;21117;-77
2021/04/23 05:53:14;;;;;;;14.68;11.48;;;;;;;10.87;65.04;97247.56;1711402;83;21193;-75
2021/04/23 05:55:42;;;;;;;13.95;11.53;;;;;;;10.87;64.95;97248.87;1701738;84;21168;-77
2021/04/23 05:58:11;;;;;;;17.65;10.85;;;;;;;10.78;64.74;97251.75;1697901;84;21127;-73
2021/04/23 06:00:42;;;;;;;15.03;12.50;;;;;;;10.63;65.35;97253.78;1681135;84;21148;-73
2021/04/23 06:03:12;;;;;;;16.48;11.93;;;;;;;10.56;65.58;97263.14;1698002;84;21163;-75
2021/04/23 06:05:40;;;;;;;15.03;11.40;;;;;;;10.52;65.61;97263.49;1703884;84;21169;-75
2021/04/23 06:08:11;;;;;;;15.05;11.70;;;;;;;10.56;65.79;97263.63;1684122;84;21155;-76
2021/04/23 06:10:43;;;;;;;13.58;11.10;;;;;;;10.63;65.94;97267.46;1691661;84;21132;-76
2021/04/23 06:13:11;;;;;;;16.57;12.68;;;;;;;10.67;65.90;97264.92;1682084;85;21329;-77
2021/04/23 06:15:39;;;;;;;18.37;12.30;;;;;;;10.70;66.04;97267.33;1696192;84;21185;-76
2021/04/23 06:18:10;;;;;;;18.20;11.80;;;;;;;10.68;66.01;97270.56;1705714;84;21173;-76
2021/04/23 06:20:41;;;;;;;16.40;11.93;;;;;;;10.72;65.89;97275.11;1681137;85;21291;-77
2021/04/23 06:23:10;;;;;;;16.32;12.13;;;;;;;10.77;65.87;97284.34;1677022;84;21135;-77
2021/04/23 06:25:38;;;;;;;17.42;12.65;;;;;;;10.76;65.56;97280.03;1700241;84;21104;-79
2021/04/23 06:28:07;;;;;;;16.77;13.18;;;;;;;10.73;65.32;97291.30;1688380;84;21590;-76
2021/04/23 06:30:36;;;;;;;15.90;11.50;;;;;;;10.64;64.93;97288.91;1666809;85;21156;-77
2021/04/23 06:33:15;;;;;;;11.05;9.58;;;;;;;10.53;64.42;97292.39;1697263;84;21137;-84
2021/04/23 06:35:40;;;;;;;13.88;10.28;;;;;;;10.45;64.69;97295.60;1687183;84;21291;-78
2021/04/23 06:38:18;;;;;;;20.27;13.80;;;;;;;10.40;64.34;97303.50;1701262;84;21166;-79
2021/04/23 06:40:46;;;;;;;16.12;12.70;;;;;;;10.42;64.68;97301.59;1701423;83;21128;-78
2021/04/23 06:43:13;;;;;;;17.90;12.55;;;;;;;10.49;64.16;97297.52;1711903;83;21158;-74
2021/04/23 06:45:44;;;;;;;17.00;13.20;;;;;;;10.72;63.86;97305.43;1706580;83;21164;-78
2021/04/23 06:48:14;;;;;;;17.42;12.53;;;;;;;11.03;63.79;97304.36;1705029;83;21172;-77
2021/04/23 06:50:42;;;;;;;12.35;10.48;;;;;;;11.28;62.98;97311.17;1699701;83;21147;-76
2021/04/23 06:53:10;;;;;;;12.58;11.28;;;;;;;11.58;62.59;97301.76;1690056;83;21178;-75
2021/04/23 06:55:39;;;;;;;14.78;11.40;;;;;;;11.72;61.84;97308.06;1694760;83;21147;-75
2021/04/23 06:58:06;;;;;;;14.85;11.45;;;;;;;11.68;60.49;97302.69;1701501;83;21169;-76
2021/04/23 07:00:37;;;;;;;13.68;11.12;;;;;;;11.49;60.99;97307.78;1711550;83;21554;-75
2021/04/23 07:03:09;;;;;;;15.05;10.15;;;;;;;11.38;60.92;97299.39;1718413;83;21168;-76
2021/04/23 07:05:41;;;;;;;18.35;10.23;;;;;;;11.44;61.16;97310.80;1706522;83;21173;-76
2021/04/23 07:08:08;;;;;;;13.83;11.15;;;;;;;11.47;60.58;97304.42;1661843;85;21135;-77
2021/04/23 07:10:39;;;;;;;11.57;10.15;;;;;;;11.54;60.76;97309.55;1654448;85;21136;-78
2021/04/23 07:13:07;;;;;;;16.37;11.53;;;;;;;11.74;59.02;97307.92;1651311;86;21168;-77
2021/04/23 07:15:36;;;;;;;13.78;10.45;;;;;;;11.76;59.78;97309.96;1650733;86;21292;-77
2021/04/23 07:18:04;;;;;;;11.55;9.13;;;;;;;11.68;59.42;97304.47;1701735;83;21148;-77
2021/04/23 07:20:36;;;;;;;10.78;7.65;;;;;;;11.75;59.65;97306.96;1709976;83;21621;-78
2021/04/23 07:23:04;;;;;;;10.15;7.05;;;;;;;12.18;58.78;97313.18;1711074;83;21108;-89
2021/04/23 07:25:33;;;;;;;11.33;7.92;;;;;;;12.62;56.43;97299.82;1701584;83;21161;-79
2021/04/23 07:28:02;;;;;;;11.95;7.40;;;;;;;13.07;57.19;97303.92;1697303;83;21140;-82
2021/04/23 07:30:34;;;;;;;7.35;5.65;;;;;;;13.57;56.11;97299.95;1712525;83;21727;-86
2021/04/23 07:33:05;;;;;;;7.35;6.05;;;;;;;14.10;55.11;97296.58;1706304;83;21127;-92
2021/04/23 07:35:33;;;;;;;12.63;6.75;;;;;;;14.12;53.03;97310.50;1706675;83;21613;-81
2021/04/23 07:38:03;;;;;;;9.53;5.90;;;;;;;14.01;52.86;97323.92;1712686;83;21101;-82
2021/04/23 07:40:33;;;;;;;10.13;6.03;;;;;;;13.86;53.60;97318.20;1700290;83;21167;-84
2021/04/23 07:43:01;;;;;;;5.50;4.42;;;;;;;13.76;53.46;97327.95;1719391;82;21142;-78
2021/04/23 07:45:31;;;;;;;7.05;3.35;;;;;;;13.72;52.78;97335.33;1714895;82;21543;-78
2021/04/23 07:48:00;;;;;;;7.37;3.35;;;;;;;13.46;52.28;97338.97;1706635;82;21286;-79
2021/04/23 07:50:29;;;;;;;5.95;3.65;;;;;;;13.39;52.46;97346.61;1697473;83;21189;-78
2021/04/23 07:52:58;;;;;;;5.72;4.08;;;;;;;13.35;51.25;97334.09;1717390;83;21586;-78
2021/04/23 07:55:26;;;;;;;6.15;3.17;;;;;;;13.58;50.68;97333.92;1697329;83;21143;-78
2021/04/23 07:57:54;;;;;;;4.22;3.30;;;;;;;13.73;50.45;97339.16;1714769;83;21581;-78
2021/04/23 08:00:24;;;;;;;4.37;3.52;;;;;;;13.66;50.91;97332.74;1708144;83;21215;-77
2021/04/23 08:02:53;;;;;;;7.50;3.50;;;;;;;13.55;51.01;97346.92;1706157;83;21549;-78
2021/04/23 08:05:23;;;;;;;6.45;3.40;;;;;;;13.47;50.11;97352.06;1716469;83;21644;-78
2021/04/23 08:07:53;;;;;;;3.98;3.17;;;;;;;13.44;50.70;97356.32;1653939;85;21127;-78
2021/04/23 08:10:21;;;;;;;4.25;3.30;;;;;;;13.43;49.85;97358.61;1654271;85;21160;-78
2021/04/23 08:12:52;;;;;;;4.55;3.83;;;;;;;13.54;47.18;97364.28;1725920;82;21545;-77
2021/04/23 08:15:24;;;;;;;5.65;4.00;;;;;;;13.75;49.75;97365.50;1705517;83;21226;-78
2021/04/23 08:17:58;;;;;;;4.85;2.80;;;;;;;13.74;50.08;97374.42;1713544;83;21250;-78
2021/04/23 08:20:28;;;;;;;4.87;3.85;;;;;;;13.88;49.51;97375.38;1718087;83;21136;-79
2021/04/23 08:22:57;;;;;;;3.08;2.22;;;;;;;14.18;48.41;97376.70;1710584;82;21139;-80
2021/04/23 08:25:25;;;;;;;5.35;2.40;;;;;;;14.37;47.94;97375.39;1716652;82;21182;-78
2021/04/23 08:27:53;;;;;;;5.53;1.87;;;;;;;14.60;47.26;97371.59;1701182;83;21807;-79
2021/04/23 08:30:24;;;;;;;2.75;1.40;;;;;;;14.74;46.35;97379.63;1701247;82;21569;-78
2021/04/23 08:32:53;;;;;;;4.33;2.10;;;;;;;14.82;40.00;97381.08;1695567;83;21696;-82
2021/04/23 08:35:21;;;;;;;2.37;1.42;;;;;;;14.75;43.54;97389.27;1705008;83;21561;-81
2021/04/23 08:37:48;;;;;;;5.00;2.12;;;;;;;14.44;39.19;97393.38;1691898;83;21183;-92
2021/04/23 08:40:19;;;;;;;4.17;1.77;;;;;;;14.03;41.22;97389.06;1666492;83;21189;-87
2021/04/23 08:42:51;;;;;;;4.00;1.70;;;;;;;13.85;41.11;97391.53;1700591;83;21100;-81
2021/04/23 08:45:23;;;;;;;3.58;2.05;;;;;;;13.68;42.20;97390.40;1720690;83;21581;-84
2021/04/23 08:47:52;;;;;;;6.33;2.17;;;;;;;13.52;43.69;97392.70;1708877;83;21154;-89
2021/04/23 08:50:25;;;;;;;6.35;1.65;;;;;;;13.51;44.21;97387.91;1711424;83;21165;-85
2021/04/23 08:52:54;;;;;;;3.25;1.90;;;;;;;13.49;44.03;97389.02;1691967;85;21172;-86
2021/04/23 08:55:25;;;;;;;3.60;1.98;;;;;;;13.49;44.00;97391.66;1691976;84;21128;-89
2021/04/23 08:57:55;;;;;;;2.72;1.60;;;;;;;13.71;44.36;97398.05;1688505;85;21140;-91
2021/04/23 09:00:23;;;;;;;6.65;2.27;;;;;;;13.80;43.39;97398.21;1691886;85;21317;-89
2021/04/23 09:02:50;;;;;;;4.62;2.37;;;;;;;13.88;43.71;97394.39;1691769;84;21165;-88
2021/04/23 09:05:18;;;;;;;5.40;2.30;;;;;;;14.07;43.24;97398.89;1691809;85;21143;-83
2021/04/23 09:08:03;;;;;;;7.08;2.20;;;;;;;14.26;41.39;97402.53;1707182;83;21148;-88
2021/04/23 09:10:34;;;;;;;7.12;2.25;;;;;;;14.31;41.69;97392.34;1720609;83;21601;-89
2021/04/23 09:13:12;;;;;;;4.25;2.52;;;;;;;14.49;40.57;97402.59;1720689;83;21653;-83
2021/04/23 09:15:45;;;;;;;4.20;2.58;;;;;;;14.66;41.67;97392.27;1720850;83;21133;-81
2021/04/23 09:18:21;;;;;;;8.28;2.30;;;;;;;14.87;41.22;97400.55;1720467;83;21144;-79
2021/04/23 09:21:01;;;;;;;8.75;2.20;;;;;;;14.99;41.26;97402.89;1720568;83;21152;-80
2021/04/23 09:23:29;;;;;;;5.85;2.25;;;;;;;15.04;40.35;97398.98;1720811;83;21891;-84
2021/04/23 09:25:59;;;;;;;5.05;2.00;;;;;;;14.87;38.11;97404.05;1720370;83;21159;-79
2021/04/23 09:28:41;;;;;;;6.55;1.92;;;;;;;14.81;36.67;97395.32;1720341;83;21152;-86
2021/04/23 09:31:31;;;;;;;9.43;2.02;;;;;;;14.74;35.57;97392.89;1720360;83;21184;-80
2021/04/23 09:34:06;;;;;;;2.62;1.20;;;;;;;14.47;34.08;97405.04;1720595;83;21140;-79
2021/04/23 09:36:38;;;;;;;3.10;1.67;;;;;;;14.21;31.30;97391.02;1720457;83;21234;-81
2021/04/23 09:39:13;;;;;;;6.28;1.92;;;;;;;13.73;32.35;97401.91;1720396;83;21139;-80
2021/04/23 09:41:45;;;;;;;4.60;1.47;;;;;;;13.56;33.49;97396.77;1723718;83;21155;-81
2021/04/23 09:44:43;;;;;;;4.33;1.80;;;;;;;13.55;33.22;97391.94;1716558;83;21594;-81
2021/04/23 09:47:18;;;;;;;2.92;1.72;;;;;;;13.66;33.87;97402.08;1724282;83;21562;-80
2021/04/23 09:49:53;;;;;;;9.28;1.95;;;;;;;13.74;34.33;97394.29;1724176;83;21290;-81
2021/04/23 09:52:21;;;;;;;3.45;1.42;;;;;;;13.85;33.67;97406.60;1723482;83;21364;-86
2021/04/23 09:55:04;;;;;;;5.00;2.02;;;;;;;13.89;32.71;97403.55;1717843;83;21140;-79
2021/04/23 09:57:36;;;;;;;2.90;1.50;;;;;;;13.93;32.97;97397.48;1724160;83;21317;-89
2021/04/23 10:00:09;;;;;;;10.38;2.90;;;;;;;13.96;31.13;97407.81;1724346;83;21175;-89
2021/04/23 10:02:37;;;;;;;5.20;2.20;;;;;;;13.78;28.42;97405.48;1724302;83;21108;-80
2021/04/23 10:05:07;;;;;;;3.10;2.45;;;;;;;13.63;30.57;97404.52;1724158;83;21147;-85
2021/04/23 10:07:35;;;;;;;4.70;2.00;;;;;;;13.61;31.44;97402.48;1724328;83;21542;-83
2021/04/23 10:10:16;;;;;;;5.12;2.02;;;;;;;13.60;31.68;97398.16;1724155;83;21282;-80
2021/04/23 10:12:53;;;;;;;5.08;1.70;;;;;;;13.61;29.69;97401.16;1588921;89;21191;-78
2021/04/23 10:15:37;;;;;;;6.83;1.60;;;;;;;13.59;30.21;97397.33;1610844;89;21234;-86
2021/04/23 10:18:12;;;;;;;6.33;1.70;;;;;;;13.40;29.45;97394.62;1610846;89;21614;-78
2021/04/23 10:20:46;;;;;;;10.20;2.27;;;;;;;13.38;30.08;97414.59;1610841;89;21168;-79
2021/04/23 10:23:17;;;;;;;6.12;1.55;;;;;;;13.40;30.08;97403.88;1610760;89;21148;-79
2021/04/23 10:25:46;;;;;;;3.40;1.55;;;;;;;13.32;29.35;97403.19;1610853;89;21184;-81
2021/04/23 10:28:23;;;;;;;3.85;1.77;;;;;;;13.25;27.71;97403.38;1611082;89;21621;-81
2021/04/23 10:30:54;;;;;;;4.78;2.00;;;;;;;13.24;29.58;97414.92;1610923;89;21248;-80
2021/04/23 10:33:28;;;;;;;2.25;1.30;;;;;;;13.18;28.37;97397.76;1610944;89;21184;-78
2021/04/23 10:35:57;;;;;;;4.08;1.85;;;;;;;13.00;28.90;97404.63;1610812;89;21211;-82
2021/04/23 10:38:38;;;;;;;3.35;1.60;;;;;;;12.83;28.51;97404.27;1713720;83;21114;-80
2021/04/23 10:41:10;;;;;;;4.72;1.70;;;;;;;12.76;28.41;97402.62;1687113;84;21274;-89
2021/04/23 10:43:54;;;;;;;4.12;1.50;;;;;;;12.74;28.52;97391.35;1682341;85;21140;-81
2021/04/23 10:46:23;;;;;;;7.03;1.75;;;;;;;12.80;29.07;97395.28;1682783;85;21165;-79
2021/04/23 10:49:07;;;;;;;6.17;1.72;;;;;;;12.85;29.98;97392.25;1682197;85;21531;-80
2021/04/23 10:51:34;;;;;;;3.45;1.72;;;;;;;12.89;30.06;97385.72;1682435;85;21597;-79
2021/04/23 10:54:15;;;;;;;3.42;2.00;;;;;;;12.94;30.31;97380.89;1682530;85;21153;-80
2021/04/23 10:56:52;;;;;;;6.40;1.92;;;;;;;13.10;30.07;97391.83;1685943;84;21120;-79
2021/04/23 10:59:34;;;;;;;5.37;2.00;;;;;;;13.22;30.58;97391.24;1695277;84;21116;-91
2021/04/23 11:02:16;;;;;;;4.28;1.82;;;;;;;13.37;30.96;97395.70;1701361;84;21140;-85
2021/04/23 11:04:57;;;;;;;5.40;2.00;;;;;;;13.50;29.07;97386.72;1682680;84;21147;-79
2021/04/23 11:07:25;;;;;;;6.80;1.80;;;;;;;13.51;30.06;97391.02;1689543;84;21132;-78
2021/04/23 11:10:01;;;;;;;3.85;1.95;;;;;;;13.58;30.52;97382.91;1684098;84;21177;-84
2021/04/23 11:12:29;;;;;;;5.55;1.70;;;;;;;13.67;30.83;97381.25;1691785;84;21129;-81
2021/04/23 11:15:17;;;;;;;7.85;1.90;;;;;;;13.74;30.01;97391.64;1710858;84;21172;-89
2021/04/23 11:17:44;;;;;;;3.95;1.90;;;;;;;13.71;29.61;97400.70;1682727;84;21168;-90
2021/04/23 11:20:32;;;;;;;5.65;2.17;;;;;;;13.73;29.82;97390.81;1691882;84;21144;-83
2021/04/23 11:23:02;;;;;;;6.65;1.98;;;;;;;13.81;29.21;97387.50;1688910;84;21265;-88
2021/04/23 11:25:29;;;;;;;5.12;1.80;;;;;;;13.84;29.82;97395.66;1710291;84;21141;-83
2021/04/23 11:28:06;;;;;;;4.95;2.22;;;;;;;13.89;28.19;97400.04;1701483;84;21562;-87
2021/04/23 11:31:04;;;;;;;6.35;2.05;;;;;;;13.77;28.59;97397.17;1697339;84;21164;-89
2021/04/23 11:33:51;;;;;;;;;;;;;;;13.62;29.37;97399.37;1701647;84;21152;-88
2021/04/23 11:36:33;;;;;;;5.20;1.87;;;;;;;13.67;30.42;97387.40;1684000;84;20162;-83
2021/04/23 11:39:11;;;;;;;4.35;2.17;;;;;;;13.69;29.02;97393.87;1683538;84;21156;-85
2021/04/23 11:42:09;;;;;;;3.05;1.60;;;;;;;13.64;30.47;97406.20;1697388;83;21124;-85
2021/04/23 11:45:08;;;;;;;4.80;1.85;;;;;;;13.64;27.91;97403.55;1658236;86;21147;-86
2021/04/23 11:48:00;;;;;;;4.00;1.98;;;;;;;13.63;29.38;97397.08;1687648;85;21289;-91
2021/04/23 11:50:48;;;;;;;3.12;1.67;;;;;;;13.58;29.50;97401.45;1723641;83;21124;-83